createdAt,value
2022-12-31T00:01:06.664Z,0.42
2022-12-31T00:03:35.179Z,0.37
2022-12-31T00:06:13.977Z,0.32
2022-12-31T00:08:43.709Z,0.26
2022-12-31T00:11:12.037Z,0.22
2022-12-31T00:13:40.855Z,0.18
2022-12-31T00:16:15.586Z,0.13
2022-12-31T00:18:46.182Z,0.10
2022-12-31T00:21:15.251Z,0.08
2022-12-31T00:23:43.235Z,0.07
2022-12-31T00:26:14.337Z,0.07
2022-12-31T00:28:43.020Z,0.07
2022-12-31T00:31:12.776Z,0.08
2022-12-31T00:33:41.503Z,0.09
2022-12-31T00:36:18.170Z,0.11
2022-12-31T00:38:48.485Z,0.13
2022-12-31T00:41:18.124Z,0.15
2022-12-31T00:43:46.698Z,0.17
2022-12-31T00:46:15.680Z,0.19
2022-12-31T00:48:43.944Z,0.18
2022-12-31T00:51:15.432Z,0.18
2022-12-31T00:53:44.299Z,0.18
2022-12-31T00:56:19.618Z,0.17
2022-12-31T00:58:48.700Z,0.16
2022-12-31T01:01:28.934Z,0.13
2022-12-31T01:04:10.594Z,0.12
2022-12-31T01:06:39.700Z,0.09
2022-12-31T01:09:08.783Z,0.06
2022-12-31T01:11:37.378Z,0.03
2022-12-31T01:14:10.090Z,-0.01
2022-12-31T01:16:53.818Z,-0.05
2022-12-31T01:19:25.602Z,-0.10
2022-12-31T01:21:54.183Z,-0.15
2022-12-31T01:24:22.712Z,-0.19
2022-12-31T01:26:51.587Z,-0.23
2022-12-31T01:29:19.701Z,-0.26
2022-12-31T01:31:47.680Z,-0.27
2022-12-31T01:34:15.627Z,-0.27
2022-12-31T01:36:43.627Z,-0.28
2022-12-31T01:39:12.447Z,-0.30
2022-12-31T01:41:44.129Z,-0.33
2022-12-31T01:44:12.010Z,-0.36
2022-12-31T01:46:52.006Z,-0.39
2022-12-31T01:49:45.364Z,-0.44
2022-12-31T01:52:18.120Z,-0.49
2022-12-31T01:54:51.771Z,-0.52
2022-12-31T01:57:21.241Z,-0.55
2022-12-31T01:59:50.221Z,-0.59
2022-12-31T02:02:18.501Z,-0.62
2022-12-31T02:04:48.613Z,-0.65
2022-12-31T02:07:16.598Z,-0.68
2022-12-31T02:09:45.086Z,-0.71
2022-12-31T02:12:13.978Z,-0.73
2022-12-31T02:14:49.417Z,-0.77
2022-12-31T02:17:46.640Z,-0.81
2022-12-31T02:20:46.872Z,-0.86
2022-12-31T02:23:45.635Z,-0.89
2022-12-31T02:26:33.579Z,-0.93
2022-12-31T02:29:16.646Z,-0.96
2022-12-31T02:32:04.256Z,-1.00
2022-12-31T02:34:53.027Z,-1.03
2022-12-31T02:37:24.473Z,-1.06
2022-12-31T02:39:53.116Z,-1.08
2022-12-31T02:42:21.259Z,-1.09
2022-12-31T02:45:17.405Z,-1.10
2022-12-31T02:48:30.407Z,-1.10
2022-12-31T02:51:12.585Z,-1.10
2022-12-31T02:53:58.457Z,-1.09
2022-12-31T02:56:49.599Z,-1.08
2022-12-31T02:59:52.837Z,-1.07
2022-12-31T03:02:23.989Z,-1.06
2022-12-31T03:04:55.546Z,-1.05
2022-12-31T03:07:27.088Z,-1.03
2022-12-31T03:09:56.004Z,-1.00
2022-12-31T03:12:45.800Z,-0.98
2022-12-31T03:15:43.466Z,-0.94
2022-12-31T03:18:17.178Z,-0.89
2022-12-31T03:21:06.994Z,-0.85
2022-12-31T03:23:50.286Z,-0.82
2022-12-31T03:26:18.205Z,-0.79
2022-12-31T03:28:47.984Z,-0.76
2022-12-31T03:31:16.984Z,-0.73
2022-12-31T03:33:44.970Z,-0.72
2022-12-31T03:36:15.157Z,-0.69
2022-12-31T03:38:46.400Z,-0.66
2022-12-31T03:41:17.993Z,-0.65
2022-12-31T03:43:46.063Z,-0.64
2022-12-31T03:46:14.384Z,-0.63
2022-12-31T03:48:42.549Z,-0.61
2022-12-31T03:51:10.564Z,-0.59
2022-12-31T03:53:39.098Z,-0.59
2022-12-31T03:56:07.233Z,-0.58
2022-12-31T03:58:35.410Z,-0.57
2022-12-31T04:01:03.563Z,-0.56
2022-12-31T04:03:31.591Z,-0.55
2022-12-31T04:05:59.575Z,-0.52
2022-12-31T04:08:27.649Z,-0.50
2022-12-31T04:10:55.664Z,-0.48
2022-12-31T04:13:23.731Z,-0.46
2022-12-31T04:15:52.178Z,-0.43
2022-12-31T04:18:20.427Z,-0.41
2022-12-31T04:20:48.707Z,-0.38
2022-12-31T04:23:18.393Z,-0.36
2022-12-31T04:25:46.638Z,-0.33
2022-12-31T04:28:15.055Z,-0.30
2022-12-31T04:30:44.165Z,-0.28
2022-12-31T04:33:12.218Z,-0.26
2022-12-31T04:35:40.365Z,-0.23
2022-12-31T04:38:08.749Z,-0.21
2022-12-31T04:40:56.699Z,-0.19
2022-12-31T04:43:24.904Z,-0.17
2022-12-31T04:45:52.937Z,-0.14
2022-12-31T04:48:21.746Z,-0.12
2022-12-31T04:50:49.703Z,-0.09
2022-12-31T04:53:17.829Z,-0.08
2022-12-31T04:55:46.167Z,-0.06
2022-12-31T04:58:14.222Z,-0.04
2022-12-31T05:00:42.182Z,-0.02
2022-12-31T05:03:10.388Z,-0.00
2022-12-31T05:05:40.014Z,0.01
2022-12-31T05:08:08.139Z,0.01
2022-12-31T05:10:36.780Z,0.02
2022-12-31T05:13:04.728Z,0.03
2022-12-31T05:15:33.200Z,0.03
2022-12-31T05:18:01.516Z,0.03
2022-12-31T05:20:30.106Z,0.03
2022-12-31T05:22:58.208Z,0.04
2022-12-31T05:25:26.297Z,0.04
2022-12-31T05:27:54.434Z,0.05
2022-12-31T05:30:23.860Z,0.05
2022-12-31T05:32:51.986Z,0.07
2022-12-31T05:35:19.897Z,0.09
2022-12-31T05:37:48.231Z,0.09
2022-12-31T05:40:16.226Z,0.10
2022-12-31T05:42:44.582Z,0.11
2022-12-31T05:45:15.973Z,0.11
2022-12-31T05:47:45.245Z,0.11
2022-12-31T05:50:18.150Z,0.11
2022-12-31T05:52:47.759Z,0.12
2022-12-31T05:55:16.574Z,0.13
2022-12-31T05:57:44.685Z,0.13
2022-12-31T06:00:13.590Z,0.13
2022-12-31T06:02:41.738Z,0.14
2022-12-31T06:05:10.534Z,0.14
2022-12-31T06:07:38.633Z,0.15
2022-12-31T06:10:07.172Z,0.15
2022-12-31T06:12:35.668Z,0.15
2022-12-31T06:15:04.396Z,0.13
2022-12-31T06:17:32.637Z,0.11
2022-12-31T06:20:01.256Z,0.10
2022-12-31T06:22:29.540Z,0.07
2022-12-31T06:24:57.597Z,0.05
2022-12-31T06:27:25.702Z,0.05
2022-12-31T06:29:53.669Z,0.05
2022-12-31T06:32:21.611Z,0.06
2022-12-31T06:34:49.653Z,0.07
2022-12-31T06:37:17.809Z,0.09
2022-12-31T06:39:45.941Z,0.12
2022-12-31T06:42:15.240Z,0.14
2022-12-31T06:44:44.029Z,0.17
2022-12-31T06:47:12.018Z,0.20
2022-12-31T06:49:40.896Z,0.24
2022-12-31T06:52:08.977Z,0.29
2022-12-31T06:54:37.450Z,0.34
2022-12-31T06:57:05.876Z,0.37
2022-12-31T06:59:34.310Z,0.42
2022-12-31T07:02:40.796Z,0.48
2022-12-31T07:05:50.956Z,0.54
2022-12-31T07:08:33.917Z,0.58
2022-12-31T07:11:23.300Z,0.62
2022-12-31T07:13:57.542Z,0.66
2022-12-31T07:16:54.988Z,0.69
2022-12-31T07:19:35.883Z,0.72
2022-12-31T07:22:04.202Z,0.75
2022-12-31T07:24:32.618Z,0.78
2022-12-31T07:27:20.740Z,0.79
2022-12-31T07:30:00.714Z,0.80
2022-12-31T07:32:44.607Z,0.83
2022-12-31T07:35:17.262Z,0.87
2022-12-31T07:37:58.934Z,0.92
2022-12-31T07:40:42.122Z,0.97
2022-12-31T07:43:22.401Z,1.02
2022-12-31T07:46:00.150Z,1.07
2022-12-31T07:48:29.402Z,1.14
2022-12-31T07:50:57.852Z,1.19
2022-12-31T07:53:26.996Z,1.24
2022-12-31T07:55:58.279Z,1.29
2022-12-31T07:58:29.175Z,1.33
2022-12-31T08:00:59.798Z,1.38
2022-12-31T08:03:37.949Z,1.41
2022-12-31T08:06:19.439Z,1.46
2022-12-31T08:08:53.160Z,1.49
2022-12-31T08:11:34.483Z,1.54
2022-12-31T08:14:03.069Z,1.58
2022-12-31T08:16:31.426Z,1.61
2022-12-31T08:18:59.649Z,1.63
2022-12-31T08:21:37.199Z,1.64
2022-12-31T08:24:14.251Z,1.63
2022-12-31T08:26:49.521Z,1.67
2022-12-31T08:29:28.400Z,1.73
2022-12-31T08:32:02.475Z,1.81
2022-12-31T08:34:49.002Z,1.89
2022-12-31T08:37:29.110Z,2.02
2022-12-31T08:39:57.103Z,2.14
2022-12-31T08:42:43.674Z,2.24
2022-12-31T08:45:19.037Z,2.39
2022-12-31T08:48:16.741Z,2.57
2022-12-31T08:50:45.017Z,2.80
2022-12-31T08:53:13.225Z,3.04
2022-12-31T08:55:43.743Z,3.33
2022-12-31T08:58:36.246Z,3.61
2022-12-31T09:01:07.473Z,3.91
2022-12-31T09:03:54.120Z,4.17
2022-12-31T09:06:42.077Z,4.53
2022-12-31T09:09:28.387Z,4.82
2022-12-31T09:12:41.760Z,4.95
2022-12-31T09:15:25.977Z,5.04
2022-12-31T09:17:54.296Z,5.13
2022-12-31T09:20:42.763Z,5.24
2022-12-31T09:23:13.461Z,5.29
2022-12-31T09:25:59.381Z,5.44
2022-12-31T09:29:11.100Z,5.65
2022-12-31T09:32:08.406Z,5.76
2022-12-31T09:34:47.060Z,5.84
2022-12-31T09:37:28.346Z,5.88
2022-12-31T09:40:01.772Z,5.93
2022-12-31T09:42:47.938Z,5.94
2022-12-31T09:45:26.377Z,5.96
2022-12-31T09:48:21.036Z,5.96
2022-12-31T09:51:27.000Z,5.93
2022-12-31T09:54:10.141Z,5.90
2022-12-31T09:57:22.639Z,5.84
2022-12-31T10:00:02.848Z,5.76
2022-12-31T10:02:46.345Z,5.69
2022-12-31T10:05:42.583Z,5.64
2022-12-31T10:08:43.131Z,5.56
2022-12-31T10:11:41.301Z,5.47
2022-12-31T10:14:47.862Z,5.41
2022-12-31T10:17:31.250Z,5.39
2022-12-31T10:20:15.028Z,5.38
2022-12-31T10:22:46.407Z,5.33
2022-12-31T10:25:39.671Z,5.31
2022-12-31T10:28:26.401Z,5.29
2022-12-31T10:31:35.385Z,5.26
2022-12-31T10:34:19.845Z,5.25
2022-12-31T10:37:11.262Z,5.25
2022-12-31T10:39:54.294Z,5.23
2022-12-31T10:42:59.944Z,5.23
2022-12-31T10:45:46.727Z,5.22
2022-12-31T10:48:36.848Z,5.23
2022-12-31T10:51:20.873Z,5.25
2022-12-31T10:54:21.310Z,5.30
2022-12-31T10:57:15.227Z,5.36
2022-12-31T11:00:01.211Z,5.42
2022-12-31T11:02:51.732Z,5.47
2022-12-31T11:05:47.452Z,5.53
2022-12-31T11:08:34.554Z,5.57
2022-12-31T11:11:28.603Z,5.63
2022-12-31T11:14:30.464Z,5.66
2022-12-31T11:17:16.746Z,5.76
2022-12-31T11:20:15.232Z,5.80
2022-12-31T11:22:54.198Z,5.86
2022-12-31T11:25:54.779Z,5.96
2022-12-31T11:28:35.049Z,5.95
2022-12-31T11:31:38.368Z,5.98
2022-12-31T11:34:41.219Z,6.23
2022-12-31T11:37:49.499Z,6.58
2022-12-31T11:40:43.483Z,6.97
2022-12-31T11:43:50.508Z,7.31
2022-12-31T11:46:31.212Z,7.63
2022-12-31T11:49:34.705Z,7.84
2022-12-31T11:52:21.377Z,7.94
2022-12-31T11:55:08.501Z,7.99
2022-12-31T11:57:39.937Z,8.05
2022-12-31T12:00:20.469Z,8.22
2022-12-31T12:02:58.002Z,8.33
2022-12-31T12:05:27.507Z,8.43
2022-12-31T12:07:56.280Z,8.58
2022-12-31T12:10:35.698Z,8.72
2022-12-31T12:13:25.555Z,8.89
2022-12-31T12:15:57.281Z,9.02
2022-12-31T12:18:38.748Z,9.12
2022-12-31T12:21:11.052Z,9.20
2022-12-31T12:23:40.455Z,9.33
2022-12-31T12:26:28.695Z,9.40
2022-12-31T12:29:01.629Z,9.42
2022-12-31T12:31:30.716Z,9.40
2022-12-31T12:33:58.836Z,9.39
2022-12-31T12:36:27.024Z,9.36
2022-12-31T12:39:06.196Z,9.29
2022-12-31T12:41:34.352Z,9.22
2022-12-31T12:44:14.507Z,9.16
2022-12-31T12:46:53.118Z,9.09
2022-12-31T12:49:27.724Z,9.01
2022-12-31T12:52:32.945Z,8.99
2022-12-31T12:55:39.574Z,9.07
2022-12-31T12:58:30.071Z,9.14
2022-12-31T13:01:10.124Z,9.21
2022-12-31T13:04:31.819Z,9.26
2022-12-31T13:07:09.711Z,9.30
2022-12-31T13:09:43.714Z,9.33
2022-12-31T13:12:11.690Z,9.37
2022-12-31T13:14:58.312Z,9.40
2022-12-31T13:18:14.906Z,9.40
2022-12-31T13:20:58.191Z,9.31
2022-12-31T13:23:42.300Z,9.22
2022-12-31T13:26:14.671Z,9.14
2022-12-31T13:28:46.358Z,9.10
2022-12-31T13:31:26.521Z,9.06
2022-12-31T13:34:01.176Z,9.02
2022-12-31T13:36:33.075Z,8.93
2022-12-31T13:39:05.603Z,8.86
2022-12-31T13:41:40.610Z,8.79
2022-12-31T13:44:08.606Z,8.71
2022-12-31T13:46:50.271Z,8.66
2022-12-31T13:49:50.270Z,8.60
2022-12-31T13:52:29.888Z,8.51
2022-12-31T13:55:03.680Z,8.43
2022-12-31T13:57:48.283Z,8.37
2022-12-31T14:00:21.806Z,8.31
2022-12-31T14:03:09.200Z,8.26
2022-12-31T14:05:49.854Z,8.21
2022-12-31T14:08:18.047Z,8.18
2022-12-31T14:11:07.072Z,8.15
2022-12-31T14:13:57.764Z,8.09
2022-12-31T14:16:45.876Z,8.05
2022-12-31T14:19:56.493Z,7.99
2022-12-31T14:22:49.459Z,7.92
2022-12-31T14:25:20.233Z,7.85
2022-12-31T14:27:51.282Z,7.80
2022-12-31T14:30:22.806Z,7.76
2022-12-31T14:33:28.684Z,7.71
2022-12-31T14:36:22.908Z,7.67
2022-12-31T14:39:10.549Z,7.65
2022-12-31T14:42:04.912Z,7.63
2022-12-31T14:45:25.575Z,7.60
2022-12-31T14:48:00.327Z,7.55
2022-12-31T14:50:31.167Z,7.52
2022-12-31T14:52:59.174Z,7.48
2022-12-31T14:55:34.114Z,7.44
2022-12-31T14:58:28.584Z,7.41
2022-12-31T15:00:59.381Z,7.35
2022-12-31T15:03:46.069Z,7.31
2022-12-31T15:06:23.768Z,7.22
2022-12-31T15:09:10.534Z,7.19
2022-12-31T15:12:06.803Z,7.14
2022-12-31T15:15:04.558Z,7.09
2022-12-31T15:17:48.167Z,7.05
2022-12-31T15:20:55.813Z,7.01
2022-12-31T15:23:42.711Z,6.98
2022-12-31T15:26:31.612Z,6.93
2022-12-31T15:29:06.542Z,6.89
2022-12-31T15:31:36.623Z,6.86
2022-12-31T15:34:20.465Z,6.84
2022-12-31T15:36:55.114Z,6.80
2022-12-31T15:39:43.594Z,6.77
2022-12-31T15:42:50.126Z,6.74
2022-12-31T15:45:28.055Z,6.69
2022-12-31T15:48:00.921Z,6.63
2022-12-31T15:50:30.099Z,6.58
2022-12-31T15:53:02.833Z,6.55
2022-12-31T15:55:48.708Z,6.52
2022-12-31T15:58:20.804Z,6.51
2022-12-31T16:01:10.606Z,6.51
2022-12-31T16:03:45.085Z,6.51
2022-12-31T16:06:15.654Z,6.52
2022-12-31T16:08:46.334Z,6.53
2022-12-31T16:11:16.308Z,6.53
2022-12-31T16:13:47.396Z,6.53
2022-12-31T16:16:28.033Z,6.54
2022-12-31T16:18:57.370Z,6.54
2022-12-31T16:21:34.733Z,6.55
2022-12-31T16:24:26.312Z,6.55
2022-12-31T16:26:59.193Z,6.55
2022-12-31T16:29:28.060Z,6.56
2022-12-31T16:31:56.134Z,6.56
2022-12-31T16:34:27.000Z,6.57
2022-12-31T16:36:56.611Z,6.57
2022-12-31T16:39:37.828Z,6.56
2022-12-31T16:42:17.737Z,6.53
2022-12-31T16:44:47.517Z,6.49
2022-12-31T16:47:31.584Z,6.49
2022-12-31T16:50:05.524Z,6.46
2022-12-31T16:52:42.331Z,6.44
2022-12-31T16:55:18.393Z,6.43
2022-12-31T16:57:49.175Z,6.44
2022-12-31T17:00:19.125Z,6.44
2022-12-31T17:03:10.740Z,6.44
2022-12-31T17:06:18.888Z,6.44
2022-12-31T17:09:05.640Z,6.45
2022-12-31T17:11:35.572Z,6.44
2022-12-31T17:14:13.053Z,6.44
2022-12-31T17:17:02.826Z,6.43
2022-12-31T17:19:37.543Z,6.41
2022-12-31T17:22:11.747Z,6.40
2022-12-31T17:24:40.334Z,6.39
2022-12-31T17:27:09.612Z,6.38
2022-12-31T17:29:37.976Z,6.37
2022-12-31T17:32:28.130Z,6.36
2022-12-31T17:34:56.260Z,6.36
2022-12-31T17:37:30.088Z,6.37
2022-12-31T17:40:49.928Z,6.37
2022-12-31T17:42:50.697Z,6.36
2022-12-31T17:45:21.768Z,6.36
2022-12-31T17:47:52.564Z,6.37
2022-12-31T17:50:25.603Z,6.37
2022-12-31T17:53:08.716Z,6.38
2022-12-31T17:55:37.278Z,6.37
2022-12-31T17:58:06.940Z,6.36
2022-12-31T18:00:36.913Z,6.34
2022-12-31T18:03:05.039Z,6.33
2022-12-31T18:05:33.075Z,6.32
2022-12-31T18:08:01.197Z,6.31
2022-12-31T18:10:32.376Z,6.31
2022-12-31T18:13:01.835Z,6.29
2022-12-31T18:15:29.885Z,6.29
2022-12-31T18:17:58.014Z,6.28
2022-12-31T18:20:26.499Z,6.26
2022-12-31T18:22:55.915Z,6.24
2022-12-31T18:25:24.359Z,6.23
2022-12-31T18:27:52.926Z,6.21
2022-12-31T18:30:21.374Z,6.19
2022-12-31T18:32:49.655Z,6.17
2022-12-31T18:35:57.611Z,6.16
2022-12-31T18:38:13.890Z,6.13
2022-12-31T18:40:46.463Z,6.08
2022-12-31T18:43:17.251Z,6.04
2022-12-31T18:45:46.633Z,6.02
2022-12-31T18:48:15.750Z,5.99
2022-12-31T18:50:44.546Z,5.98
2022-12-31T18:53:19.340Z,5.96
2022-12-31T18:55:54.316Z,5.95
2022-12-31T18:58:22.837Z,5.94
2022-12-31T19:00:52.187Z,5.90
2022-12-31T19:03:24.044Z,5.86
2022-12-31T19:05:52.263Z,5.85
2022-12-31T19:08:22.468Z,5.85
2022-12-31T19:10:52.188Z,5.85
2022-12-31T19:13:21.063Z,5.86
2022-12-31T19:15:53.385Z,5.86
2022-12-31T19:18:21.502Z,5.86
2022-12-31T19:20:52.172Z,5.86
2022-12-31T19:23:22.600Z,5.86
2022-12-31T19:25:50.767Z,5.85
2022-12-31T19:28:27.219Z,5.84
2022-12-31T19:30:55.764Z,5.83
2022-12-31T19:33:23.724Z,5.83
2022-12-31T19:35:51.742Z,5.83
2022-12-31T19:38:25.327Z,5.83
2022-12-31T19:40:53.804Z,5.85
2022-12-31T19:43:23.652Z,5.85
2022-12-31T19:45:52.351Z,5.84
2022-12-31T19:48:30.317Z,5.83
2022-12-31T19:51:00.465Z,5.84
2022-12-31T19:53:28.876Z,5.84
2022-12-31T19:55:56.852Z,5.84
2022-12-31T19:58:27.006Z,5.84
2022-12-31T20:01:02.323Z,5.84
2022-12-31T20:03:33.212Z,5.84
2022-12-31T20:06:06.562Z,5.84
2022-12-31T20:08:36.178Z,5.82
2022-12-31T20:11:19.146Z,5.82
2022-12-31T20:13:49.609Z,5.82
2022-12-31T20:16:20.463Z,5.83
2022-12-31T20:18:50.648Z,5.84
2022-12-31T20:21:24.408Z,5.83
2022-12-31T20:23:53.907Z,5.83
2022-12-31T20:26:24.444Z,5.82
2022-12-31T20:28:53.350Z,5.81
2022-12-31T20:31:24.499Z,5.81
2022-12-31T20:33:54.369Z,5.80
2022-12-31T20:36:23.226Z,5.79
2022-12-31T20:38:51.468Z,5.78
2022-12-31T20:41:22.091Z,5.76
2022-12-31T20:43:51.504Z,5.76
2022-12-31T20:46:23.215Z,5.76
2022-12-31T20:48:53.839Z,5.75
2022-12-31T20:51:23.946Z,5.75
2022-12-31T20:53:57.418Z,5.74
2022-12-31T20:56:30.676Z,5.74
2022-12-31T20:58:59.374Z,5.75
2022-12-31T21:01:41.863Z,5.76
2022-12-31T21:04:15.812Z,5.78
2022-12-31T21:06:44.066Z,5.80
2022-12-31T21:09:12.042Z,5.82
2022-12-31T21:11:58.559Z,5.83
2022-12-31T21:14:26.509Z,5.84
2022-12-31T21:16:54.486Z,5.85
2022-12-31T21:19:22.555Z,5.85
2022-12-31T21:21:51.330Z,5.85
2022-12-31T21:24:23.877Z,5.84
2022-12-31T21:26:55.704Z,5.84
2022-12-31T21:29:23.752Z,5.83
2022-12-31T21:31:51.751Z,5.82
2022-12-31T21:34:19.938Z,5.82
2022-12-31T21:36:48.021Z,5.83
2022-12-31T21:39:16.091Z,5.83
2022-12-31T21:41:52.931Z,5.82
2022-12-31T21:44:24.721Z,5.83
2022-12-31T21:47:35.012Z,5.84
2022-12-31T21:50:05.426Z,5.84
2022-12-31T21:52:36.182Z,5.83
2022-12-31T21:55:24.039Z,5.83
2022-12-31T21:58:24.713Z,5.83
2022-12-31T22:00:59.535Z,5.83
2022-12-31T22:03:28.697Z,5.82
2022-12-31T22:06:12.362Z,5.81
2022-12-31T22:08:42.015Z,5.82
2022-12-31T22:11:11.789Z,5.81
2022-12-31T22:13:40.345Z,5.82
2022-12-31T22:16:09.565Z,5.82
2022-12-31T22:18:39.524Z,5.81
2022-12-31T22:21:18.900Z,5.82
2022-12-31T22:23:50.425Z,5.83
2022-12-31T22:26:22.107Z,5.84
2022-12-31T22:28:51.475Z,5.84
2022-12-31T22:31:24.480Z,5.82
2022-12-31T22:33:53.251Z,5.80
2022-12-31T22:36:23.330Z,5.78
2022-12-31T22:38:55.958Z,5.77
2022-12-31T22:41:25.688Z,5.78
2022-12-31T22:44:03.143Z,5.77
2022-12-31T22:46:32.783Z,5.78
2022-12-31T22:49:02.997Z,5.78
2022-12-31T22:51:55.909Z,5.79
2022-12-31T22:54:21.638Z,5.80
2022-12-31T22:56:49.652Z,5.80
2022-12-31T22:59:17.820Z,5.80
2022-12-31T23:01:46.239Z,5.79
2022-12-31T23:04:15.486Z,5.76
2022-12-31T23:06:43.647Z,5.74
2022-12-31T23:09:34.443Z,5.71
2022-12-31T23:12:03.815Z,5.69
2022-12-31T23:14:50.504Z,5.67
2022-12-31T23:17:42.776Z,5.65
2022-12-31T23:20:36.204Z,5.64
2022-12-31T23:23:08.680Z,5.64
2022-12-31T23:25:49.207Z,5.63
2022-12-31T23:28:20.577Z,5.63
2022-12-31T23:30:51.349Z,5.62
2022-12-31T23:33:23.929Z,5.61
2022-12-31T23:36:05.341Z,5.61
2022-12-31T23:38:33.587Z,5.58
2022-12-31T23:41:12.497Z,5.57
2022-12-31T23:43:40.553Z,5.57
2022-12-31T23:46:08.658Z,5.57
2022-12-31T23:48:36.681Z,5.54
2022-12-31T23:51:05.388Z,5.53
2022-12-31T23:53:33.925Z,5.53
2022-12-31T23:56:14.841Z,5.51
2022-12-31T23:58:45.686Z,5.53
